sensor_id;sensor_type;location;lat;lon;timestamp;P1;durP1;ratioP1;P2;durP2;ratioP2
47669;SDS011;33408;52.062;11.722;2023-02-03T00:02:20;3.78;;;1.45;;
47669;SDS011;33408;52.062;11.722;2023-02-03T00:04:47;5.43;;;2.20;;
47669;SDS011;33408;52.062;11.722;2023-02-03T00:07:15;8.60;;;3.75;;
47669;SDS011;33408;52.062;11.722;2023-02-03T00:09:41;6.00;;;2.40;;
47669;SDS011;33408;52.062;11.722;2023-02-03T00:12:08;7.63;;;2.75;;
47669;SDS011;33408;52.062;11.722;2023-02-03T00:14:35;5.97;;;2.50;;
47669;SDS011;33408;52.062;11.722;2023-02-03T00:17:02;5.95;;;2.30;;
47669;SDS011;33408;52.062;11.722;2023-02-03T00:19:29;5.80;;;2.10;;
47669;SDS011;33408;52.062;11.722;2023-02-03T00:21:57;6.20;;;1.80;;
47669;SDS011;33408;52.062;11.722;2023-02-03T00:24:25;5.13;;;1.73;;
47669;SDS011;33408;52.062;11.722;2023-02-03T00:26:52;4.38;;;1.90;;
47669;SDS011;33408;52.062;11.722;2023-02-03T00:29:18;6.68;;;2.70;;
47669;SDS011;33408;52.062;11.722;2023-02-03T00:31:48;6.13;;;2.15;;
47669;SDS011;33408;52.062;11.722;2023-02-03T00:34:15;6.00;;;2.33;;
47669;SDS011;33408;52.062;11.722;2023-02-03T00:36:42;6.82;;;2.60;;
47669;SDS011;33408;52.062;11.722;2023-02-03T00:39:10;5.45;;;2.50;;
47669;SDS011;33408;52.062;11.722;2023-02-03T00:41:38;5.85;;;2.88;;
47669;SDS011;33408;52.062;11.722;2023-02-03T00:44:05;4.90;;;2.05;;
47669;SDS011;33408;52.062;11.722;2023-02-03T00:46:31;7.63;;;3.00;;
47669;SDS011;33408;52.062;11.722;2023-02-03T00:49:00;5.75;;;2.58;;
47669;SDS011;33408;52.062;11.722;2023-02-03T00:51:26;7.85;;;2.70;;
47669;SDS011;33408;52.062;11.722;2023-02-03T00:53:53;5.80;;;3.00;;
47669;SDS011;33408;52.062;11.722;2023-02-03T00:56:20;7.35;;;3.30;;
47669;SDS011;33408;52.062;11.722;2023-02-03T00:58:48;6.30;;;3.00;;
47669;SDS011;33408;52.062;11.722;2023-02-03T01:01:14;6.35;;;2.85;;
47669;SDS011;33408;52.062;11.722;2023-02-03T01:03:41;6.70;;;3.40;;
47669;SDS011;33408;52.062;11.722;2023-02-03T01:06:08;6.30;;;3.47;;
47669;SDS011;33408;52.062;11.722;2023-02-03T01:08:37;6.35;;;3.15;;
47669;SDS011;33408;52.062;11.722;2023-02-03T01:11:05;11.23;;;3.88;;
47669;SDS011;33408;52.062;11.722;2023-02-03T01:13:32;8.43;;;3.15;;
47669;SDS011;33408;52.062;11.722;2023-02-03T01:16:00;6.93;;;3.47;;
47669;SDS011;33408;52.062;11.722;2023-02-03T01:18:27;6.53;;;3.00;;
47669;SDS011;33408;52.062;11.722;2023-02-03T01:20:53;6.00;;;3.35;;
47669;SDS011;33408;52.062;11.722;2023-02-03T01:23:20;7.75;;;3.30;;
47669;SDS011;33408;52.062;11.722;2023-02-03T01:25:47;5.35;;;2.90;;
47669;SDS011;33408;52.062;11.722;2023-02-03T01:28:13;6.88;;;3.20;;
47669;SDS011;33408;52.062;11.722;2023-02-03T01:30:40;7.30;;;3.80;;
47669;SDS011;33408;52.062;11.722;2023-02-03T01:33:08;6.68;;;3.45;;
47669;SDS011;33408;52.062;11.722;2023-02-03T01:35:34;10.75;;;3.78;;
47669;SDS011;33408;52.062;11.722;2023-02-03T01:38:01;5.57;;;3.28;;
47669;SDS011;33408;52.062;11.722;2023-02-03T01:40:27;6.32;;;3.22;;
47669;SDS011;33408;52.062;11.722;2023-02-03T01:42:54;7.78;;;4.28;;
47669;SDS011;33408;52.062;11.722;2023-02-03T01:45:20;9.05;;;4.75;;
47669;SDS011;33408;52.062;11.722;2023-02-03T01:47:47;8.07;;;3.92;;
47669;SDS011;33408;52.062;11.722;2023-02-03T01:50:19;7.65;;;4.03;;
47669;SDS011;33408;52.062;11.722;2023-02-03T01:52:50;7.60;;;3.97;;
47669;SDS011;33408;52.062;11.722;2023-02-03T01:55:22;9.13;;;4.38;;
47669;SDS011;33408;52.062;11.722;2023-02-03T01:57:53;10.38;;;4.55;;
47669;SDS011;33408;52.062;11.722;2023-02-03T02:00:23;7.65;;;3.85;;
47669;SDS011;33408;52.062;11.722;2023-02-03T02:02:50;8.90;;;4.10;;
47669;SDS011;33408;52.062;11.722;2023-02-03T02:05:21;7.18;;;3.90;;
47669;SDS011;33408;52.062;11.722;2023-02-03T02:07:53;6.78;;;3.50;;
47669;SDS011;33408;52.062;11.722;2023-02-03T02:10:21;5.50;;;2.75;;
47669;SDS011;33408;52.062;11.722;2023-02-03T02:12:48;7.28;;;2.88;;
47669;SDS011;33408;52.062;11.722;2023-02-03T02:15:15;6.10;;;2.70;;
47669;SDS011;33408;52.062;11.722;2023-02-03T02:17:50;4.13;;;2.13;;
47669;SDS011;33408;52.062;11.722;2023-02-03T02:20:30;5.10;;;2.30;;
47669;SDS011;33408;52.062;11.722;2023-02-03T02:23:10;4.75;;;2.50;;
47669;SDS011;33408;52.062;11.722;2023-02-03T02:26:09;5.30;;;2.30;;
47669;SDS011;33408;52.062;11.722;2023-02-03T02:29:02;4.55;;;2.45;;
47669;SDS011;33408;52.062;11.722;2023-02-03T02:32:07;7.97;;;2.97;;
47669;SDS011;33408;52.062;11.722;2023-02-03T02:34:45;7.50;;;3.72;;
47669;SDS011;33408;52.062;11.722;2023-02-03T02:37:23;7.13;;;3.83;;
47669;SDS011;33408;52.062;11.722;2023-02-03T02:40:01;8.50;;;4.40;;
47669;SDS011;33408;52.062;11.722;2023-02-03T02:42:38;9.48;;;5.93;;
47669;SDS011;33408;52.062;11.722;2023-02-03T02:45:14;11.02;;;6.82;;
47669;SDS011;33408;52.062;11.722;2023-02-03T02:47:58;14.35;;;9.05;;
47669;SDS011;33408;52.062;11.722;2023-02-03T02:50:30;13.90;;;9.30;;
47669;SDS011;33408;52.062;11.722;2023-02-03T02:53:02;15.00;;;11.15;;
47669;SDS011;33408;52.062;11.722;2023-02-03T02:55:30;17.05;;;12.27;;
47669;SDS011;33408;52.062;11.722;2023-02-03T02:58:00;19.67;;;13.77;;
47669;SDS011;33408;52.062;11.722;2023-02-03T03:00:31;23.10;;;14.88;;
47669;SDS011;33408;52.062;11.722;2023-02-03T03:03:09;24.48;;;17.27;;
47669;SDS011;33408;52.062;11.722;2023-02-03T03:05:38;22.10;;;16.25;;
47669;SDS011;33408;52.062;11.722;2023-02-03T03:08:08;27.55;;;17.88;;
47669;SDS011;33408;52.062;11.722;2023-02-03T03:10:38;25.92;;;19.95;;
47669;SDS011;33408;52.062;11.722;2023-02-03T03:13:10;29.58;;;21.33;;
47669;SDS011;33408;52.062;11.722;2023-02-03T03:15:40;30.63;;;21.77;;
47669;SDS011;33408;52.062;11.722;2023-02-03T03:18:10;31.33;;;22.52;;
47669;SDS011;33408;52.062;11.722;2023-02-03T03:20:41;29.20;;;21.33;;
47669;SDS011;33408;52.062;11.722;2023-02-03T03:23:13;29.77;;;19.40;;
47669;SDS011;33408;52.062;11.722;2023-02-03T03:25:47;25.52;;;20.02;;
47669;SDS011;33408;52.062;11.722;2023-02-03T03:28:20;27.80;;;20.17;;
47669;SDS011;33408;52.062;11.722;2023-02-03T03:30:50;26.70;;;20.42;;
47669;SDS011;33408;52.062;11.722;2023-02-03T03:33:19;25.67;;;19.42;;
47669;SDS011;33408;52.062;11.722;2023-02-03T03:35:48;23.88;;;18.83;;
47669;SDS011;33408;52.062;11.722;2023-02-03T03:38:20;23.40;;;17.85;;
47669;SDS011;33408;52.062;11.722;2023-02-03T03:40:58;26.02;;;19.42;;
47669;SDS011;33408;52.062;11.722;2023-02-03T03:45:57;26.70;;;18.27;;
47669;SDS011;33408;52.062;11.722;2023-02-03T03:48:30;24.93;;;18.27;;
47669;SDS011;33408;52.062;11.722;2023-02-03T03:51:00;22.40;;;18.35;;
47669;SDS011;33408;52.062;11.722;2023-02-03T03:53:30;23.85;;;19.52;;
47669;SDS011;33408;52.062;11.722;2023-02-03T03:56:00;23.20;;;19.63;;
47669;SDS011;33408;52.062;11.722;2023-02-03T03:58:29;23.08;;;17.42;;
47669;SDS011;33408;52.062;11.722;2023-02-03T04:00:59;25.35;;;19.02;;
47669;SDS011;33408;52.062;11.722;2023-02-03T04:03:31;20.55;;;17.80;;
47669;SDS011;33408;52.062;11.722;2023-02-03T04:06:03;23.17;;;16.45;;
47669;SDS011;33408;52.062;11.722;2023-02-03T04:08:30;22.48;;;17.02;;
47669;SDS011;33408;52.062;11.722;2023-02-03T04:10:56;20.73;;;16.10;;
47669;SDS011;33408;52.062;11.722;2023-02-03T04:13:23;20.70;;;16.38;;
47669;SDS011;33408;52.062;11.722;2023-02-03T04:15:49;24.75;;;16.25;;
47669;SDS011;33408;52.062;11.722;2023-02-03T04:18:16;22.10;;;15.82;;
47669;SDS011;33408;52.062;11.722;2023-02-03T04:20:44;21.13;;;17.08;;
47669;SDS011;33408;52.062;11.722;2023-02-03T04:23:11;20.27;;;15.43;;
47669;SDS011;33408;52.062;11.722;2023-02-03T04:25:37;20.10;;;15.48;;
47669;SDS011;33408;52.062;11.722;2023-02-03T04:28:04;23.42;;;14.40;;
47669;SDS011;33408;52.062;11.722;2023-02-03T04:30:31;19.98;;;14.77;;
47669;SDS011;33408;52.062;11.722;2023-02-03T04:32:58;21.85;;;15.77;;
47669;SDS011;33408;52.062;11.722;2023-02-03T04:35:24;18.70;;;14.75;;
47669;SDS011;33408;52.062;11.722;2023-02-03T04:37:53;16.67;;;14.38;;
47669;SDS011;33408;52.062;11.722;2023-02-03T04:40:19;22.38;;;14.88;;
47669;SDS011;33408;52.062;11.722;2023-02-03T04:42:46;18.92;;;13.63;;
47669;SDS011;33408;52.062;11.722;2023-02-03T04:45:12;16.48;;;12.82;;
47669;SDS011;33408;52.062;11.722;2023-02-03T04:47:39;17.95;;;13.40;;
47669;SDS011;33408;52.062;11.722;2023-02-03T04:50:06;18.13;;;13.73;;
47669;SDS011;33408;52.062;11.722;2023-02-03T04:52:33;19.33;;;14.13;;
47669;SDS011;33408;52.062;11.722;2023-02-03T04:55:01;17.52;;;12.85;;
47669;SDS011;33408;52.062;11.722;2023-02-03T04:57:28;18.00;;;12.55;;
47669;SDS011;33408;52.062;11.722;2023-02-03T04:59:55;15.48;;;12.60;;
47669;SDS011;33408;52.062;11.722;2023-02-03T05:02:21;19.00;;;13.57;;
47669;SDS011;33408;52.062;11.722;2023-02-03T05:04:48;17.38;;;12.20;;
47669;SDS011;33408;52.062;11.722;2023-02-03T05:07:15;18.30;;;12.13;;
47669;SDS011;33408;52.062;11.722;2023-02-03T05:09:41;17.80;;;13.05;;
47669;SDS011;33408;52.062;11.722;2023-02-03T05:12:09;18.67;;;12.27;;
47669;SDS011;33408;52.062;11.722;2023-02-03T05:14:36;16.23;;;10.88;;
47669;SDS011;33408;52.062;11.722;2023-02-03T05:17:02;17.85;;;11.70;;
47669;SDS011;33408;52.062;11.722;2023-02-03T05:19:29;16.65;;;12.00;;
47669;SDS011;33408;52.062;11.722;2023-02-03T05:21:55;18.45;;;11.60;;
47669;SDS011;33408;52.062;11.722;2023-02-03T05:24:22;16.77;;;11.93;;
47669;SDS011;33408;52.062;11.722;2023-02-03T05:26:48;14.02;;;11.02;;
47669;SDS011;33408;52.062;11.722;2023-02-03T05:29:17;15.20;;;11.05;;
47669;SDS011;33408;52.062;11.722;2023-02-03T05:31:44;16.60;;;10.98;;
47669;SDS011;33408;52.062;11.722;2023-02-03T05:34:10;15.13;;;11.07;;
47669;SDS011;33408;52.062;11.722;2023-02-03T05:36:37;14.98;;;11.27;;
47669;SDS011;33408;52.062;11.722;2023-02-03T05:39:03;17.40;;;11.30;;
47669;SDS011;33408;52.062;11.722;2023-02-03T05:41:30;15.23;;;10.82;;
47669;SDS011;33408;52.062;11.722;2023-02-03T05:44:14;15.07;;;10.18;;
47669;SDS011;33408;52.062;11.722;2023-02-03T05:46:42;15.10;;;9.52;;
47669;SDS011;33408;52.062;11.722;2023-02-03T05:49:08;13.63;;;10.77;;
47669;SDS011;33408;52.062;11.722;2023-02-03T05:51:35;13.55;;;9.35;;
47669;SDS011;33408;52.062;11.722;2023-02-03T05:54:03;16.55;;;10.73;;
47669;SDS011;33408;52.062;11.722;2023-02-03T05:56:30;13.45;;;9.88;;
47669;SDS011;33408;52.062;11.722;2023-02-03T05:58:56;14.93;;;9.23;;
47669;SDS011;33408;52.062;11.722;2023-02-03T06:01:23;14.60;;;9.13;;
47669;SDS011;33408;52.062;11.722;2023-02-03T06:03:51;13.48;;;9.65;;
47669;SDS011;33408;52.062;11.722;2023-02-03T06:06:18;11.95;;;8.95;;
47669;SDS011;33408;52.062;11.722;2023-02-03T06:08:44;17.00;;;9.52;;
47669;SDS011;33408;52.062;11.722;2023-02-03T06:11:11;14.70;;;9.23;;
47669;SDS011;33408;52.062;11.722;2023-02-03T06:13:38;13.70;;;8.77;;
47669;SDS011;33408;52.062;11.722;2023-02-03T06:16:04;12.57;;;8.73;;
47669;SDS011;33408;52.062;11.722;2023-02-03T06:18:31;14.48;;;8.65;;
47669;SDS011;33408;52.062;11.722;2023-02-03T06:21:00;16.05;;;9.95;;
47669;SDS011;33408;52.062;11.722;2023-02-03T06:23:26;13.80;;;9.27;;
47669;SDS011;33408;52.062;11.722;2023-02-03T06:25:53;16.55;;;9.32;;
47669;SDS011;33408;52.062;11.722;2023-02-03T06:28:19;15.43;;;8.77;;
47669;SDS011;33408;52.062;11.722;2023-02-03T06:30:48;15.35;;;9.73;;
47669;SDS011;33408;52.062;11.722;2023-02-03T06:33:15;13.70;;;9.20;;
47669;SDS011;33408;52.062;11.722;2023-02-03T06:35:41;16.77;;;10.18;;
47669;SDS011;33408;52.062;11.722;2023-02-03T06:38:09;16.50;;;10.43;;
47669;SDS011;33408;52.062;11.722;2023-02-03T06:40:36;13.77;;;9.07;;
47669;SDS011;33408;52.062;11.722;2023-02-03T06:43:02;14.93;;;9.45;;
47669;SDS011;33408;52.062;11.722;2023-02-03T06:45:29;12.38;;;8.10;;
47669;SDS011;33408;52.062;11.722;2023-02-03T06:47:56;17.33;;;8.15;;
47669;SDS011;33408;52.062;11.722;2023-02-03T06:50:22;14.50;;;8.82;;
47669;SDS011;33408;52.062;11.722;2023-02-03T06:52:49;14.40;;;8.32;;
47669;SDS011;33408;52.062;11.722;2023-02-03T06:55:17;12.45;;;8.23;;
47669;SDS011;33408;52.062;11.722;2023-02-03T06:57:44;12.52;;;8.52;;
47669;SDS011;33408;52.062;11.722;2023-02-03T07:00:12;13.88;;;8.95;;
47669;SDS011;33408;52.062;11.722;2023-02-03T07:02:41;13.45;;;7.78;;
47669;SDS011;33408;52.062;11.722;2023-02-03T07:05:08;16.30;;;8.45;;
47669;SDS011;33408;52.062;11.722;2023-02-03T07:07:35;10.07;;;7.40;;
47669;SDS011;33408;52.062;11.722;2023-02-03T07:10:03;14.13;;;8.05;;
47669;SDS011;33408;52.062;11.722;2023-02-03T07:12:32;11.82;;;6.53;;
47669;SDS011;33408;52.062;11.722;2023-02-03T07:15:00;13.23;;;7.05;;
47669;SDS011;33408;52.062;11.722;2023-02-03T07:17:27;10.95;;;7.00;;
47669;SDS011;33408;52.062;11.722;2023-02-03T07:19:53;11.50;;;7.15;;
47669;SDS011;33408;52.062;11.722;2023-02-03T07:22:20;10.68;;;6.70;;
47669;SDS011;33408;52.062;11.722;2023-02-03T07:24:46;15.18;;;7.45;;
47669;SDS011;33408;52.062;11.722;2023-02-03T07:27:13;13.25;;;6.95;;
47669;SDS011;33408;52.062;11.722;2023-02-03T07:29:41;9.65;;;6.35;;
47669;SDS011;33408;52.062;11.722;2023-02-03T07:32:07;11.65;;;7.10;;
47669;SDS011;33408;52.062;11.722;2023-02-03T07:34:34;11.68;;;5.90;;
47669;SDS011;33408;52.062;11.722;2023-02-03T07:37:00;11.73;;;5.68;;
47669;SDS011;33408;52.062;11.722;2023-02-03T07:39:27;11.18;;;5.95;;
47669;SDS011;33408;52.062;11.722;2023-02-03T07:41:54;11.63;;;5.18;;
47669;SDS011;33408;52.062;11.722;2023-02-03T07:44:20;10.25;;;5.10;;
47669;SDS011;33408;52.062;11.722;2023-02-03T07:46:48;13.55;;;5.90;;
47669;SDS011;33408;52.062;11.722;2023-02-03T07:49:15;13.80;;;5.50;;
47669;SDS011;33408;52.062;11.722;2023-02-03T07:51:41;10.77;;;4.82;;
47669;SDS011;33408;52.062;11.722;2023-02-03T07:54:08;9.85;;;4.57;;
47669;SDS011;33408;52.062;11.722;2023-02-03T07:56:34;10.25;;;5.35;;
47669;SDS011;33408;52.062;11.722;2023-02-03T07:59:01;10.52;;;5.28;;
47669;SDS011;33408;52.062;11.722;2023-02-03T08:01:28;11.50;;;5.65;;
47669;SDS011;33408;52.062;11.722;2023-02-03T08:03:56;10.68;;;4.95;;
47669;SDS011;33408;52.062;11.722;2023-02-03T08:06:26;10.30;;;4.63;;
47669;SDS011;33408;52.062;11.722;2023-02-03T08:08:54;7.80;;;4.03;;
47669;SDS011;33408;52.062;11.722;2023-02-03T08:11:21;10.15;;;4.32;;
47669;SDS011;33408;52.062;11.722;2023-02-03T08:13:47;7.78;;;4.13;;
47669;SDS011;33408;52.062;11.722;2023-02-03T08:16:14;10.68;;;4.55;;
47669;SDS011;33408;52.062;11.722;2023-02-03T08:18:40;10.85;;;4.38;;
47669;SDS011;33408;52.062;11.722;2023-02-03T08:21:08;11.25;;;4.40;;
47669;SDS011;33408;52.062;11.722;2023-02-03T08:23:36;8.50;;;4.40;;
47669;SDS011;33408;52.062;11.722;2023-02-03T08:26:02;11.95;;;4.85;;
47669;SDS011;33408;52.062;11.722;2023-02-03T08:28:29;8.15;;;3.60;;
47669;SDS011;33408;52.062;11.722;2023-02-03T08:30:55;10.85;;;4.07;;
47669;SDS011;33408;52.062;11.722;2023-02-03T08:33:22;10.02;;;4.50;;
47669;SDS011;33408;52.062;11.722;2023-02-03T08:35:49;10.70;;;4.20;;
47669;SDS011;33408;52.062;11.722;2023-02-03T08:38:17;9.50;;;3.58;;
47669;SDS011;33408;52.062;11.722;2023-02-03T08:40:45;8.60;;;3.85;;
47669;SDS011;33408;52.062;11.722;2023-02-03T08:43:12;7.95;;;3.63;;
47669;SDS011;33408;52.062;11.722;2023-02-03T08:45:39;8.20;;;3.78;;
47669;SDS011;33408;52.062;11.722;2023-02-03T08:48:05;10.73;;;4.13;;
47669;SDS011;33408;52.062;11.722;2023-02-03T08:50:32;9.82;;;3.78;;
47669;SDS011;33408;52.062;11.722;2023-02-03T08:52:59;10.20;;;3.80;;
47669;SDS011;33408;52.062;11.722;2023-02-03T08:55:27;6.43;;;3.17;;
47669;SDS011;33408;52.062;11.722;2023-02-03T08:57:54;6.72;;;3.30;;
47669;SDS011;33408;52.062;11.722;2023-02-03T09:00:21;5.05;;;2.80;;
47669;SDS011;33408;52.062;11.722;2023-02-03T09:02:47;4.90;;;2.63;;
47669;SDS011;33408;52.062;11.722;2023-02-03T09:05:14;5.53;;;2.58;;
47669;SDS011;33408;52.062;11.722;2023-02-03T09:07:42;7.03;;;2.83;;
47669;SDS011;33408;52.062;11.722;2023-02-03T09:10:09;5.38;;;2.75;;
47669;SDS011;33408;52.062;11.722;2023-02-03T09:12:37;5.97;;;2.67;;
47669;SDS011;33408;52.062;11.722;2023-02-03T09:15:04;6.32;;;2.53;;
47669;SDS011;33408;52.062;11.722;2023-02-03T09:17:31;4.95;;;2.58;;
47669;SDS011;33408;52.062;11.722;2023-02-03T09:19:58;3.35;;;1.80;;
47669;SDS011;33408;52.062;11.722;2023-02-03T09:22:24;4.25;;;2.30;;
47669;SDS011;33408;52.062;11.722;2023-02-03T09:24:51;5.95;;;2.45;;
47669;SDS011;33408;52.062;11.722;2023-02-03T09:27:17;4.47;;;2.28;;
47669;SDS011;33408;52.062;11.722;2023-02-03T09:29:45;4.20;;;2.20;;
47669;SDS011;33408;52.062;11.722;2023-02-03T09:32:12;6.53;;;2.85;;
47669;SDS011;33408;52.062;11.722;2023-02-03T09:34:38;6.20;;;2.75;;
47669;SDS011;33408;52.062;11.722;2023-02-03T09:37:05;5.93;;;2.97;;
47669;SDS011;33408;52.062;11.722;2023-02-03T09:39:32;5.45;;;2.50;;
47669;SDS011;33408;52.062;11.722;2023-02-03T09:42:08;7.53;;;2.95;;
47669;SDS011;33408;52.062;11.722;2023-02-03T09:44:46;6.65;;;3.10;;
47669;SDS011;33408;52.062;11.722;2023-02-03T09:47:17;5.82;;;2.92;;
47669;SDS011;33408;52.062;11.722;2023-02-03T09:49:49;5.38;;;3.00;;
47669;SDS011;33408;52.062;11.722;2023-02-03T09:52:17;4.90;;;2.58;;
47669;SDS011;33408;52.062;11.722;2023-02-03T09:54:47;5.30;;;3.05;;
47669;SDS011;33408;52.062;11.722;2023-02-03T09:57:20;4.65;;;2.78;;
47669;SDS011;33408;52.062;11.722;2023-02-03T09:59:50;5.88;;;3.28;;
47669;SDS011;33408;52.062;11.722;2023-02-03T10:02:24;6.43;;;3.33;;
47669;SDS011;33408;52.062;11.722;2023-02-03T10:04:57;8.43;;;3.72;;
47669;SDS011;33408;52.062;11.722;2023-02-03T10:07:33;8.43;;;4.70;;
47669;SDS011;33408;52.062;11.722;2023-02-03T10:10:10;7.40;;;4.47;;
47669;SDS011;33408;52.062;11.722;2023-02-03T10:12:52;7.15;;;4.00;;
47669;SDS011;33408;52.062;11.722;2023-02-03T10:15:38;8.25;;;3.92;;
47669;SDS011;33408;52.062;11.722;2023-02-03T10:18:18;11.88;;;3.97;;
47669;SDS011;33408;52.062;11.722;2023-02-03T10:20:48;6.80;;;3.13;;
47669;SDS011;33408;52.062;11.722;2023-02-03T10:23:19;6.72;;;3.58;;
47669;SDS011;33408;52.062;11.722;2023-02-03T10:25:52;8.65;;;3.10;;
47669;SDS011;33408;52.062;11.722;2023-02-03T10:28:21;6.60;;;3.30;;
47669;SDS011;33408;52.062;11.722;2023-02-03T10:30:52;12.80;;;3.90;;
47669;SDS011;33408;52.062;11.722;2023-02-03T10:33:23;9.00;;;3.10;;
47669;SDS011;33408;52.062;11.722;2023-02-03T10:35:52;9.75;;;3.85;;
47669;SDS011;33408;52.062;11.722;2023-02-03T10:38:27;8.88;;;3.42;;
47669;SDS011;33408;52.062;11.722;2023-02-03T10:41:04;12.07;;;3.20;;
47669;SDS011;33408;52.062;11.722;2023-02-03T10:43:31;10.75;;;3.72;;
47669;SDS011;33408;52.062;11.722;2023-02-03T10:46:17;8.52;;;3.22;;
47669;SDS011;33408;52.062;11.722;2023-02-03T10:48:45;8.27;;;3.33;;
47669;SDS011;33408;52.062;11.722;2023-02-03T10:51:14;10.18;;;3.83;;
47669;SDS011;33408;52.062;11.722;2023-02-03T10:53:44;8.05;;;3.30;;
47669;SDS011;33408;52.062;11.722;2023-02-03T10:56:12;9.57;;;2.97;;
47669;SDS011;33408;52.062;11.722;2023-02-03T10:58:45;10.48;;;3.53;;
47669;SDS011;33408;52.062;11.722;2023-02-03T11:01:14;9.60;;;3.47;;
47669;SDS011;33408;52.062;11.722;2023-02-03T11:03:52;9.52;;;2.53;;
47669;SDS011;33408;52.062;11.722;2023-02-03T11:06:22;11.50;;;3.45;;
47669;SDS011;33408;52.062;11.722;2023-02-03T11:08:49;7.18;;;2.50;;
47669;SDS011;33408;52.062;11.722;2023-02-03T11:11:19;9.90;;;3.33;;
47669;SDS011;33408;52.062;11.722;2023-02-03T11:13:51;16.05;;;3.85;;
47669;SDS011;33408;52.062;11.722;2023-02-03T11:16:20;14.77;;;3.33;;
47669;SDS011;33408;52.062;11.722;2023-02-03T11:18:55;12.02;;;3.30;;
47669;SDS011;33408;52.062;11.722;2023-02-03T11:21:24;9.07;;;2.33;;
47669;SDS011;33408;52.062;11.722;2023-02-03T11:24:02;12.30;;;3.15;;
47669;SDS011;33408;52.062;11.722;2023-02-03T11:26:32;11.07;;;3.30;;
47669;SDS011;33408;52.062;11.722;2023-02-03T11:29:02;7.10;;;2.20;;
47669;SDS011;33408;52.062;11.722;2023-02-03T11:31:33;8.18;;;2.92;;
47669;SDS011;33408;52.062;11.722;2023-02-03T11:34:02;11.10;;;2.83;;
47669;SDS011;33408;52.062;11.722;2023-02-03T11:36:31;11.40;;;2.30;;
47669;SDS011;33408;52.062;11.722;2023-02-03T11:39:10;11.45;;;2.83;;
47669;SDS011;33408;52.062;11.722;2023-02-03T11:44:09;11.52;;;2.88;;
47669;SDS011;33408;52.062;11.722;2023-02-03T11:46:39;17.92;;;3.65;;
47669;SDS011;33408;52.062;11.722;2023-02-03T11:49:10;10.95;;;2.95;;
47669;SDS011;33408;52.062;11.722;2023-02-03T11:51:47;16.77;;;2.88;;
47669;SDS011;33408;52.062;11.722;2023-02-03T11:54:23;15.57;;;2.60;;
47669;SDS011;33408;52.062;11.722;2023-02-03T11:59:45;14.90;;;2.40;;
47669;SDS011;33408;52.062;11.722;2023-02-03T12:02:27;12.35;;;3.38;;
47669;SDS011;33408;52.062;11.722;2023-02-03T12:05:27;13.50;;;3.05;;
47669;SDS011;33408;52.062;11.722;2023-02-03T12:08:06;11.57;;;3.03;;
47669;SDS011;33408;52.062;11.722;2023-02-03T12:10:43;18.65;;;4.00;;
47669;SDS011;33408;52.062;11.722;2023-02-03T12:13:28;18.02;;;3.97;;
47669;SDS011;33408;52.062;11.722;2023-02-03T12:16:07;20.27;;;3.63;;
47669;SDS011;33408;52.062;11.722;2023-02-03T12:18:51;22.40;;;4.30;;
47669;SDS011;33408;52.062;11.722;2023-02-03T12:21:32;17.25;;;3.78;;
47669;SDS011;33408;52.062;11.722;2023-02-03T12:24:06;17.83;;;3.95;;
47669;SDS011;33408;52.062;11.722;2023-02-03T12:26:46;19.42;;;4.53;;
47669;SDS011;33408;52.062;11.722;2023-02-03T12:29:20;17.05;;;3.90;;
47669;SDS011;33408;52.062;11.722;2023-02-03T12:31:52;17.58;;;3.92;;
47669;SDS011;33408;52.062;11.722;2023-02-03T12:34:30;21.85;;;5.50;;
47669;SDS011;33408;52.062;11.722;2023-02-03T12:37:02;27.30;;;5.28;;
47669;SDS011;33408;52.062;11.722;2023-02-03T12:39:32;21.83;;;4.53;;
47669;SDS011;33408;52.062;11.722;2023-02-03T12:42:06;16.55;;;3.95;;
47669;SDS011;33408;52.062;11.722;2023-02-03T12:44:42;18.35;;;4.10;;
47669;SDS011;33408;52.062;11.722;2023-02-03T12:47:13;20.13;;;5.10;;
47669;SDS011;33408;52.062;11.722;2023-02-03T12:49:47;13.40;;;4.20;;
47669;SDS011;33408;52.062;11.722;2023-02-03T12:52:19;22.58;;;4.80;;
47669;SDS011;33408;52.062;11.722;2023-02-03T12:54:49;16.85;;;4.05;;
47669;SDS011;33408;52.062;11.722;2023-02-03T12:57:23;20.65;;;4.78;;
47669;SDS011;33408;52.062;11.722;2023-02-03T13:02:41;25.05;;;4.93;;
47669;SDS011;33408;52.062;11.722;2023-02-03T13:05:20;19.15;;;4.55;;
47669;SDS011;33408;52.062;11.722;2023-02-03T13:07:50;18.00;;;4.57;;
47669;SDS011;33408;52.062;11.722;2023-02-03T13:10:25;14.32;;;4.22;;
47669;SDS011;33408;52.062;11.722;2023-02-03T13:12:57;30.13;;;5.88;;
47669;SDS011;33408;52.062;11.722;2023-02-03T13:15:26;27.35;;;5.43;;
47669;SDS011;33408;52.062;11.722;2023-02-03T13:17:56;27.73;;;5.13;;
47669;SDS011;33408;52.062;11.722;2023-02-03T13:20:30;17.10;;;4.22;;
47669;SDS011;33408;52.062;11.722;2023-02-03T13:23:00;18.50;;;4.32;;
47669;SDS011;33408;52.062;11.722;2023-02-03T13:25:31;20.80;;;5.15;;
47669;SDS011;33408;52.062;11.722;2023-02-03T13:28:14;20.95;;;4.72;;
47669;SDS011;33408;52.062;11.722;2023-02-03T13:30:54;18.05;;;4.97;;
47669;SDS011;33408;52.062;11.722;2023-02-03T13:36:49;23.63;;;4.93;;
47669;SDS011;33408;52.062;11.722;2023-02-03T13:39:57;22.70;;;5.75;;
47669;SDS011;33408;52.062;11.722;2023-02-03T13:42:32;17.17;;;4.82;;
47669;SDS011;33408;52.062;11.722;2023-02-03T13:47:34;26.52;;;4.78;;
47669;SDS011;33408;52.062;11.722;2023-02-03T13:50:02;17.25;;;3.83;;
47669;SDS011;33408;52.062;11.722;2023-02-03T13:52:34;18.52;;;4.50;;
47669;SDS011;33408;52.062;11.722;2023-02-03T13:55:03;23.83;;;4.78;;
47669;SDS011;33408;52.062;11.722;2023-02-03T13:57:32;19.45;;;4.65;;
47669;SDS011;33408;52.062;11.722;2023-02-03T14:00:03;18.77;;;3.90;;
47669;SDS011;33408;52.062;11.722;2023-02-03T14:05:37;18.00;;;4.00;;
47669;SDS011;33408;52.062;11.722;2023-02-03T14:11:39;20.40;;;5.00;;
47669;SDS011;33408;52.062;11.722;2023-02-03T14:20:37;18.52;;;4.43;;
47669;SDS011;33408;52.062;11.722;2023-02-03T14:23:13;20.10;;;5.28;;
47669;SDS011;33408;52.062;11.722;2023-02-03T14:25:45;23.00;;;5.60;;
47669;SDS011;33408;52.062;11.722;2023-02-03T14:28:17;23.80;;;5.70;;
47669;SDS011;33408;52.062;11.722;2023-02-03T14:31:05;20.95;;;6.05;;
47669;SDS011;33408;52.062;11.722;2023-02-03T14:34:01;19.35;;;3.92;;
47669;SDS011;33408;52.062;11.722;2023-02-03T14:36:39;21.35;;;5.10;;
47669;SDS011;33408;52.062;11.722;2023-02-03T14:42:21;21.63;;;4.45;;
47669;SDS011;33408;52.062;11.722;2023-02-03T14:45:10;23.23;;;4.60;;
47669;SDS011;33408;52.062;11.722;2023-02-03T14:47:50;18.70;;;4.78;;
47669;SDS011;33408;52.062;11.722;2023-02-03T14:50:28;18.58;;;4.70;;
47669;SDS011;33408;52.062;11.722;2023-02-03T14:53:09;23.15;;;3.88;;
47669;SDS011;33408;52.062;11.722;2023-02-03T14:55:49;16.50;;;4.07;;
47669;SDS011;33408;52.062;11.722;2023-02-03T14:58:27;14.90;;;3.60;;
47669;SDS011;33408;52.062;11.722;2023-02-03T15:00:59;23.05;;;4.53;;
47669;SDS011;33408;52.062;11.722;2023-02-03T15:03:28;18.17;;;4.65;;
47669;SDS011;33408;52.062;11.722;2023-02-03T15:05:56;14.93;;;3.33;;
47669;SDS011;33408;52.062;11.722;2023-02-03T15:08:29;23.00;;;4.30;;
47669;SDS011;33408;52.062;11.722;2023-02-03T15:14:19;15.13;;;3.83;;
47669;SDS011;33408;52.062;11.722;2023-02-03T15:16:49;17.02;;;4.38;;
47669;SDS011;33408;52.062;11.722;2023-02-03T15:21:48;19.90;;;4.72;;